logo
Search for airport 
image banner adimage banner adimage banner ad
image banner ad

MMHO - Hermosillo Aeropuerto Int. Gral. Ignacio Pesqueira Garcia

Located in Hermosillo, Mexico

ICAO - MMHO, IATA - HMO

Data provided by Airmate  

General information

Coordinates: N29°5'45" W111°2'52"
Elevation is 627 feet MSL.
 
View others Airports in Sonora

Operational data

Special qualification required
Current time UTC:
Current local time:
Weather
METAR: MMHO 180740Z 00000KT 10SM SKC 20/01 A2993 RMK HZY
TAF: TAF MMHO 180532Z 1806/1906 20005KT P6SM SKC FM181900 27010KT P6SM SCT200 FM190000 20010KT P6SM SCT200
View NOTAMs / SUP AIP / TFR affecting this airport [VIEW]
Communications frequencies: [VIEW]

Runways:

RWY identifierQFULength (ft)Width (ft)SurfaceLDA (ft)
0559°7546148ASP
23239°7546148ASP

Airport contact information

Address: Hermosillo Mexico

Satellite view of MMHO